createdAt,value
2018-11-23T00:01:46.757Z,87.80
2018-11-23T00:05:50.433Z,86.40
2018-11-23T00:09:54.132Z,86.40
2018-11-23T00:13:57.842Z,86.50
2018-11-23T00:18:01.570Z,87.30
2018-11-23T00:22:05.365Z,86.20
2018-11-23T00:26:09.084Z,86.80
2018-11-23T00:30:14.590Z,86.70
2018-11-23T00:34:18.277Z,86.40
2018-11-23T00:38:21.992Z,86.50
2018-11-23T00:42:25.674Z,87.40
2018-11-23T00:46:29.605Z,86.40
2018-11-23T00:50:33.284Z,86.70
2018-11-23T00:54:36.970Z,87.20
2018-11-23T00:58:40.665Z,86.40
2018-11-23T01:02:44.889Z,86.40
2018-11-23T01:06:48.605Z,87.00
2018-11-23T01:10:52.296Z,86.50
2018-11-23T01:14:55.985Z,86.70
2018-11-23T01:18:59.672Z,86.80
2018-11-23T01:23:03.404Z,86.40
2018-11-23T01:27:07.100Z,86.20
2018-11-23T01:31:10.831Z,86.80
2018-11-23T01:35:14.674Z,87.20
2018-11-23T01:39:18.340Z,86.70
2018-11-23T01:43:22.015Z,86.50
2018-11-23T01:47:25.717Z,86.50
2018-11-23T01:51:29.357Z,86.20
2018-11-23T01:55:33.043Z,85.90
2018-11-23T01:59:36.747Z,86.50
2018-11-23T02:03:40.453Z,86.20
2018-11-23T02:07:47.341Z,86.50
2018-11-23T02:11:51.092Z,86.70
2018-11-23T02:15:54.818Z,85.90
2018-11-23T02:24:01.882Z,85.70
2018-11-23T02:28:05.754Z,86.10
2018-11-23T02:32:09.478Z,86.70
2018-11-23T02:36:13.225Z,85.50
2018-11-23T02:40:18.053Z,86.10
2018-11-23T02:44:21.773Z,86.70
2018-11-23T02:48:25.489Z,85.90
2018-11-23T02:52:29.199Z,85.90
2018-11-23T02:56:44.028Z,86.30
2018-11-23T03:00:47.741Z,85.60
2018-11-23T03:04:51.444Z,86.40
2018-11-23T03:08:55.198Z,85.90
2018-11-23T03:12:58.901Z,86.20
2018-11-23T03:17:02.617Z,85.90
2018-11-23T03:21:06.417Z,86.50
2018-11-23T03:25:11.117Z,86.30
2018-11-23T03:29:14.822Z,86.40
2018-11-23T03:33:18.539Z,86.60
2018-11-23T03:37:22.220Z,85.90
2018-11-23T03:41:25.953Z,86.30
2018-11-23T03:45:29.761Z,86.10
2018-11-23T03:49:33.458Z,86.10
2018-11-23T03:53:37.189Z,86.00
2018-11-23T03:57:40.898Z,86.70
2018-11-23T04:01:44.640Z,86.50
2018-11-23T04:05:48.362Z,86.50
2018-11-23T04:09:52.091Z,86.00
2018-11-23T04:13:55.821Z,86.20
2018-11-23T04:17:59.477Z,86.20
2018-11-23T04:22:03.356Z,86.00
2018-11-23T04:26:07.121Z,85.70
2018-11-23T04:30:13.842Z,86.40
2018-11-23T04:34:17.573Z,85.60
2018-11-23T04:38:21.262Z,85.70
2018-11-23T04:42:24.993Z,85.50
2018-11-23T04:46:28.717Z,85.40
2018-11-23T04:50:32.377Z,85.70
2018-11-23T04:54:36.237Z,85.40
2018-11-23T04:58:39.932Z,86.20
2018-11-23T05:02:44.333Z,85.80
2018-11-23T05:06:48.117Z,86.20
2018-11-23T05:10:51.773Z,86.30
2018-11-23T05:17:41.058Z,85.50
2018-11-23T05:21:44.757Z,85.70
2018-11-23T05:25:48.420Z,86.10
2018-11-23T05:29:52.325Z,85.60
2018-11-23T05:33:56.009Z,86.10
2018-11-23T05:37:59.708Z,86.20
2018-11-23T05:42:03.476Z,85.60
2018-11-23T05:46:07.121Z,85.50
2018-11-23T05:53:54.485Z,85.40
2018-11-23T05:57:58.185Z,85.40
2018-11-23T06:02:01.897Z,85.30
2018-11-23T06:06:05.742Z,86.10
2018-11-23T06:10:12.417Z,85.90
2018-11-23T06:14:16.090Z,86.00
2018-11-23T06:18:19.788Z,85.30
2018-11-23T06:22:23.481Z,86.00
2018-11-23T06:26:28.308Z,85.80
2018-11-23T06:30:32.007Z,85.90
2018-11-23T06:34:35.758Z,85.40
2018-11-23T06:38:39.593Z,85.20
2018-11-23T06:42:43.338Z,85.40
2018-11-23T06:46:47.002Z,85.50
2018-11-23T06:50:50.757Z,85.70
2018-11-23T06:54:54.444Z,85.10
2018-11-23T06:58:58.130Z,85.70
2018-11-23T07:03:01.890Z,85.70
2018-11-23T07:07:05.838Z,85.70
2018-11-23T07:11:09.590Z,85.70
2018-11-23T07:15:13.570Z,85.10
2018-11-23T07:19:17.262Z,85.00
2018-11-23T07:23:20.992Z,85.70
2018-11-23T07:27:24.645Z,85.10
2018-11-23T07:31:28.430Z,85.80
2018-11-23T07:35:32.158Z,85.70
2018-11-23T07:39:47.013Z,85.80
2018-11-23T07:43:50.719Z,85.80
2018-11-23T07:47:54.386Z,85.90
2018-11-23T07:51:58.122Z,85.80
2018-11-23T07:56:01.807Z,85.90
2018-11-23T08:00:14.521Z,85.90
2018-11-23T08:04:18.243Z,85.40
2018-11-23T08:08:21.905Z,86.00
2018-11-23T08:12:25.593Z,85.30
2018-11-23T08:16:29.298Z,86.00
2018-11-23T08:20:32.976Z,85.50
2018-11-23T08:24:36.648Z,85.50
2018-11-23T08:28:40.321Z,86.20
2018-11-23T08:32:44.220Z,85.90
2018-11-23T08:36:47.921Z,85.90
2018-11-23T08:40:51.606Z,85.20
2018-11-23T08:44:55.363Z,86.00
2018-11-23T08:48:59.034Z,86.20
2018-11-23T08:53:02.730Z,86.20
2018-11-23T08:57:06.506Z,86.40
2018-11-23T09:01:10.316Z,85.50
2018-11-23T09:05:14.269Z,85.40
2018-11-23T09:09:17.983Z,85.50
2018-11-23T09:13:21.662Z,86.00
2018-11-23T09:17:25.367Z,86.00
2018-11-23T09:21:29.077Z,85.80
2018-11-23T09:25:32.774Z,85.90
2018-11-23T09:29:36.473Z,85.20
2018-11-23T09:33:40.217Z,86.10
2018-11-23T09:37:44.399Z,86.80
2018-11-23T09:41:48.238Z,85.30
2018-11-23T09:45:51.971Z,85.90
2018-11-23T09:54:29.931Z,85.80
2018-11-23T09:58:33.647Z,84.90
2018-11-23T10:02:37.328Z,84.80
2018-11-23T10:06:41.085Z,85.00
2018-11-23T10:10:44.824Z,84.70
2018-11-23T10:14:48.505Z,85.60
2018-11-23T10:18:52.201Z,85.80
2018-11-23T10:22:55.969Z,85.50
2018-11-23T10:26:59.677Z,85.30
2018-11-23T10:31:03.382Z,84.70
2018-11-23T10:35:08.025Z,84.40
2018-11-23T10:39:11.729Z,85.20
2018-11-23T10:43:15.449Z,85.10
2018-11-23T10:47:19.123Z,84.40
2018-11-23T10:51:22.841Z,83.70
2018-11-23T10:55:28.294Z,82.40
2018-11-23T10:59:32.061Z,82.10
2018-11-23T11:03:36.666Z,82.20
2018-11-23T11:07:40.441Z,81.40
2018-11-23T11:11:44.207Z,80.90
2018-11-23T11:15:47.898Z,81.00
2018-11-23T11:19:51.609Z,81.10
2018-11-23T11:23:55.317Z,80.20
2018-11-23T11:27:58.997Z,80.70
2018-11-23T11:32:02.669Z,80.70
2018-11-23T11:36:06.372Z,82.00
2018-11-23T11:40:12.228Z,82.60
2018-11-23T11:44:15.949Z,83.30
2018-11-23T11:48:19.690Z,82.90
2018-11-23T11:52:23.388Z,83.70
2018-11-23T11:56:27.039Z,83.90
2018-11-23T12:00:30.806Z,83.10
2018-11-23T12:04:34.586Z,84.10
2018-11-23T12:08:38.282Z,83.40
2018-11-23T12:12:42.065Z,84.20
2018-11-23T12:16:45.743Z,84.60
2018-11-23T12:20:49.484Z,84.50
2018-11-23T12:24:53.453Z,83.80
2018-11-23T12:28:57.143Z,84.20
2018-11-23T12:33:00.844Z,84.40
2018-11-23T12:37:04.553Z,84.20
2018-11-23T12:41:08.274Z,84.30
2018-11-23T12:45:13.675Z,84.50
2018-11-23T12:49:17.384Z,84.50
2018-11-23T12:53:21.229Z,84.60
2018-11-23T12:57:24.934Z,84.70
2018-11-23T13:01:28.626Z,84.40
2018-11-23T13:05:33.992Z,84.60
2018-11-23T13:09:37.809Z,84.80
2018-11-23T13:13:41.592Z,84.90
2018-11-23T13:17:45.283Z,84.30
2018-11-23T13:21:49.092Z,84.90
2018-11-23T13:25:52.821Z,85.00
2018-11-23T13:29:56.697Z,84.20
2018-11-23T13:34:00.394Z,84.40
2018-11-23T13:38:04.112Z,84.40
2018-11-23T13:42:07.837Z,84.00
2018-11-23T13:46:11.503Z,84.20
2018-11-23T13:50:16.632Z,84.90
2018-11-23T13:54:20.336Z,84.80
2018-11-23T13:58:24.175Z,84.80
2018-11-23T14:02:29.027Z,85.00
2018-11-23T14:06:32.728Z,83.20
2018-11-23T14:10:36.501Z,84.10
2018-11-23T14:14:40.221Z,84.50
2018-11-23T14:18:43.944Z,83.90
2018-11-23T14:22:47.706Z,83.90
2018-11-23T14:26:51.416Z,85.00
2018-11-23T14:30:55.096Z,84.10
2018-11-23T14:34:58.820Z,84.00
2018-11-23T14:39:02.530Z,84.00
2018-11-23T14:43:06.238Z,84.70
2018-11-23T14:47:09.924Z,84.80
2018-11-23T14:51:13.686Z,84.80
2018-11-23T14:55:17.818Z,83.80
2018-11-23T14:59:21.589Z,82.60
2018-11-23T15:03:25.371Z,81.90
2018-11-23T15:07:29.123Z,81.30
2018-11-23T15:11:32.861Z,81.00
2018-11-23T15:15:38.985Z,80.60
2018-11-23T15:19:42.740Z,80.30
2018-11-23T15:23:46.484Z,80.20
2018-11-23T15:27:50.194Z,79.90
2018-11-23T15:31:53.941Z,79.80
2018-11-23T15:35:57.667Z,79.70
2018-11-23T15:40:01.398Z,79.60
2018-11-23T15:44:05.808Z,78.70
2018-11-23T15:48:10.336Z,79.30
2018-11-23T15:52:14.105Z,79.30
2018-11-23T15:56:17.948Z,79.10
2018-11-23T16:00:25.480Z,79.00
2018-11-23T16:04:29.200Z,79.00
2018-11-23T16:08:33.093Z,79.40
2018-11-23T16:12:36.812Z,78.20
2018-11-23T16:16:40.513Z,78.80
2018-11-23T16:20:45.645Z,78.80
2018-11-23T16:24:49.350Z,78.60
2018-11-23T16:28:53.087Z,78.40
2018-11-23T16:32:58.006Z,78.50
2018-11-23T16:37:01.721Z,78.30
2018-11-23T16:41:05.809Z,78.40
2018-11-23T16:45:13.666Z,78.80
2018-11-23T16:49:17.457Z,78.20
2018-11-23T16:53:21.329Z,78.50
2018-11-23T16:57:25.038Z,78.50
2018-11-23T17:01:28.716Z,78.40
2018-11-23T17:05:34.160Z,78.30
2018-11-23T17:09:37.933Z,78.20
2018-11-23T17:13:41.693Z,79.40
2018-11-23T17:17:45.862Z,81.10
2018-11-23T17:21:49.525Z,80.20
2018-11-23T17:25:53.313Z,79.30
2018-11-23T17:29:57.012Z,79.80
2018-11-23T17:34:00.775Z,79.00
2018-11-23T17:38:04.577Z,78.90
2018-11-23T17:42:08.289Z,78.70
2018-11-23T17:46:12.105Z,78.90
2018-11-23T17:50:18.326Z,78.90
2018-11-23T17:54:22.108Z,79.00
2018-11-23T17:58:25.834Z,79.00
2018-11-23T18:02:30.706Z,79.00
2018-11-23T18:06:34.401Z,79.10
2018-11-23T18:10:38.154Z,79.00
2018-11-23T18:14:41.918Z,79.00
2018-11-23T18:18:45.634Z,79.00
2018-11-23T18:22:50.025Z,79.10
2018-11-23T18:26:53.723Z,79.00
2018-11-23T18:30:57.434Z,78.90
2018-11-23T18:35:01.161Z,78.70
2018-11-23T18:39:06.951Z,79.00
2018-11-23T18:43:10.675Z,79.20
2018-11-23T18:47:14.424Z,79.20
2018-11-23T18:51:18.124Z,79.30
2018-11-23T18:55:21.849Z,79.40
2018-11-23T18:59:25.549Z,79.50
2018-11-23T19:03:29.266Z,79.30
2018-11-23T19:07:33.067Z,79.20
2018-11-23T19:11:41.975Z,79.20
2018-11-23T19:15:45.713Z,78.50
2018-11-23T19:19:49.426Z,79.10
2018-11-23T19:23:53.144Z,79.30
2018-11-23T19:27:56.845Z,79.40
2018-11-23T19:32:00.558Z,79.50
2018-11-23T19:36:04.350Z,79.20
2018-11-23T19:40:10.618Z,79.10
2018-11-23T19:44:14.333Z,79.10
2018-11-23T19:48:18.072Z,79.20
2018-11-23T19:52:21.837Z,79.00
2018-11-23T19:56:25.549Z,79.00
2018-11-23T20:00:29.293Z,78.90
2018-11-23T20:04:32.985Z,78.90
2018-11-23T20:08:36.668Z,78.90
2018-11-23T20:12:40.421Z,79.30
2018-11-23T20:16:44.155Z,79.20
2018-11-23T20:20:47.889Z,79.10
2018-11-23T20:24:51.590Z,79.30
2018-11-23T20:28:55.252Z,79.40
2018-11-23T20:32:58.980Z,79.30
2018-11-23T20:37:02.725Z,79.50
2018-11-23T20:41:06.451Z,79.30
2018-11-23T20:45:11.263Z,79.60
2018-11-23T20:49:14.937Z,79.80
2018-11-23T20:53:18.645Z,79.80
2018-11-23T20:57:22.398Z,79.80
2018-11-23T21:01:26.086Z,79.90
2018-11-23T21:05:29.793Z,80.00
2018-11-23T21:09:33.499Z,79.20
2018-11-23T21:13:37.239Z,80.30
2018-11-23T21:17:40.915Z,81.10
2018-11-23T21:21:44.637Z,81.40
2018-11-23T21:25:48.385Z,81.50
2018-11-23T21:29:52.073Z,81.80
2018-11-23T21:33:55.822Z,81.90
2018-11-23T21:37:59.540Z,82.80
2018-11-23T21:42:03.253Z,82.20
2018-11-23T21:46:07.026Z,82.30
2018-11-23T21:50:24.849Z,82.40
2018-11-23T21:54:22.190Z,82.60
2018-11-23T21:58:25.899Z,82.60
2018-11-23T22:02:29.720Z,82.50
2018-11-23T22:06:33.448Z,82.60
2018-11-23T22:10:37.236Z,82.60
2018-11-23T22:14:41.008Z,82.60
2018-11-23T22:18:44.748Z,82.70
2018-11-23T22:22:48.446Z,82.80
2018-11-23T22:26:52.137Z,83.30
2018-11-23T22:30:55.882Z,83.70
2018-11-23T22:34:59.559Z,83.00
2018-11-23T22:39:03.453Z,83.30
2018-11-23T22:43:07.424Z,82.80
2018-11-23T22:47:11.144Z,83.10
2018-11-23T22:51:14.847Z,83.00
2018-11-23T22:55:19.205Z,83.20
2018-11-23T22:59:22.933Z,84.20
2018-11-23T23:03:26.750Z,83.10
2018-11-23T23:07:30.504Z,83.00
2018-11-23T23:11:34.301Z,82.90
2018-11-23T23:15:37.983Z,82.90
2018-11-23T23:19:41.662Z,83.10
2018-11-23T23:23:45.393Z,83.20
2018-11-23T23:27:49.104Z,84.10
2018-11-23T23:31:52.842Z,83.60
2018-11-23T23:35:56.496Z,83.30
2018-11-23T23:40:00.222Z,83.10
2018-11-23T23:44:04.022Z,83.50
2018-11-23T23:48:07.738Z,83.10
2018-11-23T23:52:11.465Z,83.10
2018-11-23T23:56:15.145Z,82.90
